Mount Baldy, California
Current Conditions -  °F | °C
As of 10:53 AM on Tuesday 21 Oct 2014 (Local Time) from KONT Reporting Station
Haze Haze  
Wind Chill: 66°   Ceiling: Unl
Heat Index: 66°   Visibility: 2.5mi
Dew Point: 59°   Wind: 5mph
Humidity: 78%   Direction: 230°SW
Pressure: 29.93"   Gusts: NA
Location:  34.24°N, 117.66°W
Report Text: KONT 211753Z 23004KT 2 1/2SM HZ SCT008 19/15 A2993 RMK AO2 SLP127 T01890150 10189 20144 50002
Loading
Personal Weather Stations






























Interactive Weather Map
Tropical Storm Tracking
New forecast layout! Learn more

10-Day Weather Forecast

Advertisements
Track Severe Weather on mobile